Time;durP1;ratioP1;P1;durP2;ratioP2;P2;SDS_P1;SDS_P2;PMS_P1;PMS_P2;Temp;Humidity;BMP_temperature;BMP_pressure;BME280_temperature;BME280_humidity;BME280_pressure;Samples;Min_cycle;Max_cycle;Signal;HPM_P1;HPM_P2
2022/08/28 00:02:22;;;;;;;;;;;;;;;16.27;56.44;100407.16;5073601;28;1044;-52
2022/08/28 00:04:47;;;;;;;;;;;;;;;16.26;56.48;100409.09;5074232;28;1167;-52
2022/08/28 00:07:12;;;;;;;;;;;;;;;16.22;56.58;100402.53;5068663;28;825;-52
2022/08/28 00:09:38;;;;;;;;;;;;;;;16.17;56.41;100406.13;5061118;28;1032;-49
2022/08/28 00:12:04;;;;;;;;;;;;;;;16.16;56.46;100409.13;5065102;28;1973;-53
2022/08/28 00:14:29;;;;;;;;;;;;;;;16.19;56.50;100411.34;5070706;28;1637;-51
2022/08/28 00:16:55;;;;;;;;;;;;;;;16.15;56.35;100416.53;5067121;28;1843;-50
2022/08/28 00:19:22;;;;;;;;;;;;;;;17.30;56.89;100420.34;5061563;28;882;-53
2022/08/28 00:21:48;;;;;;;;;;;;;;;16.98;57.55;100427.16;5056145;28;1246;-51
2022/08/28 00:24:13;;;;;;;;;;;;;;;16.68;57.70;100421.53;5073918;28;989;-52
2022/08/28 00:29:23;;;;;;;;;;;;;;;16.50;57.26;100420.25;5046275;28;2043;-51
2022/08/28 00:31:48;;;;;;;;;;;;;;;16.45;57.19;100422.19;5061362;28;1958;-52
2022/08/28 00:34:14;;;;;;;;;;;;;;;16.40;57.12;100423.84;5072744;28;970;-48
2022/08/28 00:36:40;;;;;;;;;;;;;;;16.35;56.78;100418.38;5060116;28;1174;-50
2022/08/28 00:39:05;;;;;;;;;;;;;;;16.37;56.76;100421.69;5074277;28;1083;-54
2022/08/28 00:41:31;;;;;;;;;;;;;;;16.29;56.57;100413.22;5074229;28;1120;-53
2022/08/28 00:44:08;;;;;;;;;;;;;;;16.30;56.32;100412.94;5074228;28;853;-53
2022/08/28 00:46:34;;;;;;;;;;;;;;;16.31;56.15;100413.75;5056407;28;2203;-51
2022/08/28 00:48:59;;;;;;;;;;;;;;;16.24;56.58;100417.63;5066428;28;969;-53
2022/08/28 00:54:09;;;;;;;;;;;;;;;16.46;57.03;100410.13;5057421;28;1068;-52
2022/08/28 00:56:34;;;;;;;;;;;;;;;17.34;56.75;100405.72;5048979;28;1247;-52
2022/08/28 00:59:01;;;;;;;;;;;;;;;16.77;57.96;100408.03;5065066;28;1009;-52
2022/08/28 01:01:27;;;;;;;;;;;;;;;16.60;57.56;100406.47;5055867;28;1151;-48
2022/08/28 01:03:52;;;;;;;;;;;;;;;16.54;57.29;100401.31;5068578;28;958;-51
2022/08/28 01:06:20;;;;;;;;;;;;;;;16.46;56.94;100407.38;5066366;28;977;-52
2022/08/28 01:08:46;;;;;;;;;;;;;;;16.40;57.15;100399.16;5048744;28;1028;-51
2022/08/28 01:11:12;;;;;;;;;;;;;;;16.36;57.02;100408.25;5070459;28;1910;-51
2022/08/28 01:13:38;;;;;;;;;;;;;;;16.34;56.84;100411.28;5041767;28;1203;-47
2022/08/28 01:16:03;;;;;;;;;;;;;;;16.31;56.47;100411.81;5067738;28;997;-52
2022/08/28 01:18:29;;;;;;;;;;;;;;;16.30;56.75;100409.34;5055803;28;2449;-49
2022/08/28 01:21:00;;;;;;;;;;;;;;;16.25;56.48;100407.47;5066217;28;1017;-49
2022/08/28 01:23:44;;;;;;;;;;;;;;;16.23;56.39;100415.97;5076645;28;1131;-48
2022/08/28 01:26:10;;;;;;;;;;;;;;;16.21;56.48;100411.84;5060517;28;1061;-49
2022/08/28 01:28:35;;;;;;;;;;;;;;;16.18;56.61;100412.41;5069625;28;1095;-47
2022/08/28 01:31:00;;;;;;;;;;;;;;;16.13;56.55;100417.91;5071541;28;1906;-50
2022/08/28 01:33:26;;;;;;;;;;;;;;;16.14;56.51;100414.09;5067231;28;1092;-50
2022/08/28 01:35:51;;;;;;;;;;;;;;;16.16;56.25;100414.59;5070538;28;1080;-48
2022/08/28 01:38:17;;;;;;;;;;;;;;;16.12;56.27;100413.53;5074921;28;1024;-48
2022/08/28 01:40:43;;;;;;;;;;;;;;;16.11;56.27;100417.38;5072752;28;1218;-49
2022/08/28 01:43:11;;;;;;;;;;;;;;;16.10;56.41;100415.75;5075861;28;1041;-50
2022/08/28 01:45:37;;;;;;;;;;;;;;;17.31;56.65;100420.03;5074341;28;1000;-51
2022/08/28 01:48:04;;;;;;;;;;;;;;;16.83;57.53;100417.88;5066122;28;1808;-51
2022/08/28 01:50:29;;;;;;;;;;;;;;;16.56;57.85;100419.13;5075212;28;1910;-54
2022/08/28 01:52:54;;;;;;;;;;;;;;;16.48;57.48;100416.13;5074053;28;1096;-52
2022/08/28 01:55:20;;;;;;;;;;;;;;;16.40;57.04;100418.38;5070050;28;1158;-53
2022/08/28 01:57:46;;;;;;;;;;;;;;;16.38;56.83;100417.00;5071172;28;1080;-52
2022/08/28 02:00:12;;;;;;;;;;;;;;;16.33;56.91;100414.31;5064435;28;1041;-53
2022/08/28 02:02:38;;;;;;;;;;;;;;;16.31;56.76;100406.31;5065029;28;962;-51
2022/08/28 02:05:04;;;;;;;;;;;;;;;16.28;56.63;100400.59;5067253;28;1206;-53
2022/08/28 02:07:29;;;;;;;;;;;;;;;16.21;56.49;100400.88;5070567;28;1041;-53
2022/08/28 02:09:55;;;;;;;;;;;;;;;16.24;56.38;100403.06;5058289;28;959;-53
2022/08/28 02:12:20;;;;;;;;;;;;;;;16.18;56.67;100406.94;5074002;28;1917;-51
2022/08/28 02:14:46;;;;;;;;;;;;;;;16.17;56.33;100410.78;5074557;28;981;-52
2022/08/28 02:17:11;;;;;;;;;;;;;;;17.15;57.03;100396.53;5075813;28;1884;-52
2022/08/28 02:19:37;;;;;;;;;;;;;;;16.87;57.61;100402.47;5071371;28;1028;-52
2022/08/28 02:22:07;;;;;;;;;;;;;;;16.64;57.77;100406.72;5071145;28;1143;-51
2022/08/28 02:24:33;;;;;;;;;;;;;;;16.49;57.42;100409.56;5062497;28;958;-51
2022/08/28 02:26:58;;;;;;;;;;;;;;;16.45;57.29;100412.03;5068320;28;1017;-53
2022/08/28 02:29:25;;;;;;;;;;;;;;;16.42;56.89;100412.59;5070494;28;1080;-49
2022/08/28 02:31:51;;;;;;;;;;;;;;;16.32;56.97;100412.66;5062010;28;1922;-50
2022/08/28 02:34:17;;;;;;;;;;;;;;;16.30;56.98;100417.56;5053318;28;1017;-48
2022/08/28 02:36:42;;;;;;;;;;;;;;;16.28;56.62;100417.84;5073929;28;1004;-48
2022/08/28 02:39:08;;;;;;;;;;;;;;;16.25;56.59;100413.75;5072993;28;1092;-47
2022/08/28 02:41:33;;;;;;;;;;;;;;;16.20;56.56;100415.69;5075592;28;1008;-53
2022/08/28 02:43:59;;;;;;;;;;;;;;;16.18;56.36;100413.22;5066649;28;1096;-52
2022/08/28 02:46:25;;;;;;;;;;;;;;;16.23;56.61;100412.41;5070467;28;1131;-52
2022/08/28 02:48:50;;;;;;;;;;;;;;;17.56;56.62;100416.25;5063688;28;2594;-51
2022/08/28 02:51:18;;;;;;;;;;;;;;;16.89;57.54;100415.97;5071961;28;1921;-47
2022/08/28 02:53:44;;;;;;;;;;;;;;;16.66;57.60;100422.91;5076361;28;1025;-49
2022/08/28 02:56:10;;;;;;;;;;;;;;;16.55;57.50;100427.63;5067473;28;1199;-50
2022/08/28 02:58:36;;;;;;;;;;;;;;;16.46;57.34;100426.59;5066356;28;997;-51
2022/08/28 03:01:02;;;;;;;;;;;;;;;16.46;57.07;100423.84;5071192;28;961;-48
2022/08/28 03:03:29;;;;;;;;;;;;;;;16.39;56.61;100430.44;5044844;28;1160;-51
2022/08/28 03:05:55;;;;;;;;;;;;;;;16.36;56.65;100438.44;5072853;28;981;-46
2022/08/28 03:08:21;;;;;;;;;;;;;;;16.28;56.53;100441.75;5066232;28;1107;-48
2022/08/28 03:10:46;;;;;;;;;;;;;;;16.23;56.75;100440.66;5074074;28;1984;-52
2022/08/28 03:13:12;;;;;;;;;;;;;;;16.21;56.66;100444.78;5074677;28;1104;-49
2022/08/28 03:15:38;;;;;;;;;;;;;;;16.17;56.61;100439.03;5075516;28;1021;-53
2022/08/28 03:18:03;;;;;;;;;;;;;;;16.16;56.64;100436.56;5059324;28;2166;-52
2022/08/28 03:20:28;;;;;;;;;;;;;;;16.14;56.35;100433.28;5056494;28;1020;-49
2022/08/28 03:25:38;;;;;;;;;;;;;;;17.16;56.83;100433.91;5062943;28;1040;-50
2022/08/28 03:28:04;;;;;;;;;;;;;;;17.05;57.61;100444.94;5072418;28;993;-54
2022/08/28 03:30:29;;;;;;;;;;;;;;;16.68;57.89;100453.66;5062718;28;1913;-55
2022/08/28 03:32:54;;;;;;;;;;;;;;;16.55;57.60;100449.59;5069086;28;1013;-52
2022/08/28 03:35:20;;;;;;;;;;;;;;;16.50;57.42;100441.41;5060386;28;1167;-51
2022/08/28 03:37:46;;;;;;;;;;;;;;;16.42;57.21;100446.38;5075179;28;1064;-55
2022/08/28 03:40:11;;;;;;;;;;;;;;;16.43;56.82;100441.69;5075747;28;1155;-48
2022/08/28 03:42:37;;;;;;;;;;;;;;;16.32;56.92;100451.88;5056217;28;1481;-55
2022/08/28 03:45:03;;;;;;;;;;;;;;;16.29;56.80;100441.47;5068646;28;950;-53
2022/08/28 03:47:29;;;;;;;;;;;;;;;16.25;56.59;100440.38;5073739;28;2183;-53
2022/08/28 03:49:55;;;;;;;;;;;;;;;16.23;56.71;100437.09;5074339;28;1060;-49
2022/08/28 03:52:20;;;;;;;;;;;;;;;16.22;56.75;100454.66;5063845;28;1926;-52
2022/08/28 03:54:46;;;;;;;;;;;;;;;16.18;56.58;100461.81;5063561;28;1234;-55
2022/08/28 03:57:15;;;;;;;;;;;;;;;16.15;56.54;100462.38;5064615;28;1347;-50
2022/08/28 03:59:40;;;;;;;;;;;;;;;16.12;56.56;100468.38;5068228;28;1173;-54
2022/08/28 04:02:06;;;;;;;;;;;;;;;16.28;57.28;100461.75;5068322;28;993;-53
2022/08/28 04:04:31;;;;;;;;;;;;;;;17.51;56.79;100465.78;5070184;28;1076;-48
2022/08/28 04:06:57;;;;;;;;;;;;;;;16.83;57.89;100458.25;5071717;28;1212;-49
2022/08/28 04:09:22;;;;;;;;;;;;;;;16.65;57.98;100466.03;5067283;28;904;-50
2022/08/28 04:11:47;;;;;;;;;;;;;;;16.52;57.63;100466.63;5063316;28;1894;-48
2022/08/28 04:14:13;;;;;;;;;;;;;;;16.42;57.35;100462.00;5075467;28;966;-55
2022/08/28 04:16:38;;;;;;;;;;;;;;;16.39;57.20;100466.09;5073681;28;1846;-51
2022/08/28 04:19:04;;;;;;;;;;;;;;;16.33;56.93;100461.75;5064140;28;1009;-52
2022/08/28 04:21:30;;;;;;;;;;;;;;;16.31;56.89;100466.69;5068256;28;907;-50
2022/08/28 04:23:55;;;;;;;;;;;;;;;16.28;56.79;100459.03;5075467;28;1068;-51
2022/08/28 04:26:22;;;;;;;;;;;;;;;16.26;56.77;100469.47;5075734;28;1061;-51
2022/08/28 04:28:47;;;;;;;;;;;;;;;16.25;56.56;100465.06;5075102;28;1175;-51
2022/08/28 04:31:13;;;;;;;;;;;;;;;17.17;57.20;100476.75;5066632;28;1902;-51
2022/08/28 04:33:39;;;;;;;;;;;;;;;17.01;57.83;100476.88;5062750;28;919;-55
2022/08/28 04:36:05;;;;;;;;;;;;;;;16.67;58.04;100474.78;5075706;28;985;-51
2022/08/28 04:38:31;;;;;;;;;;;;;;;16.56;57.69;100468.53;5075196;28;1202;-51
2022/08/28 04:40:56;;;;;;;;;;;;;;;16.51;57.32;100468.56;5075201;28;1037;-54
2022/08/28 04:43:22;;;;;;;;;;;;;;;16.40;57.12;100470.50;5068942;28;1037;-50
2022/08/28 04:45:48;;;;;;;;;;;;;;;16.37;57.02;100473.81;5068139;28;934;-51
2022/08/28 04:48:13;;;;;;;;;;;;;;;16.37;56.71;100468.31;5063763;28;1978;-51
2022/08/28 04:50:42;;;;;;;;;;;;;;;16.33;57.03;100469.97;5071517;28;2680;-48
2022/08/28 04:53:08;;;;;;;;;;;;;;;16.28;56.86;100466.44;5079470;28;1009;-45
2022/08/28 04:55:33;;;;;;;;;;;;;;;16.27;56.84;100467.53;5078877;28;1255;-54
2022/08/28 04:57:59;;;;;;;;;;;;;;;16.24;56.52;100471.66;5076865;28;868;-54
2022/08/28 05:00:25;;;;;;;;;;;;;;;16.21;56.59;100474.97;5078892;28;980;-55
2022/08/28 05:02:50;;;;;;;;;;;;;;;16.23;56.42;100475.50;5079097;28;1005;-53
2022/08/28 05:05:16;;;;;;;;;;;;;;;16.18;56.50;100479.06;5079044;28;1120;-49
2022/08/28 05:07:41;;;;;;;;;;;;;;;16.19;56.31;100468.94;5074252;28;961;-51
2022/08/28 05:10:07;;;;;;;;;;;;;;;16.20;56.31;100476.03;5073558;28;1121;-52
2022/08/28 05:12:34;;;;;;;;;;;;;;;17.40;56.90;100476.06;5068816;28;1914;-50
2022/08/28 05:14:59;;;;;;;;;;;;;;;16.98;57.90;100480.16;5072034;28;977;-49
2022/08/28 05:17:25;;;;;;;;;;;;;;;16.68;57.92;100481.13;5068490;28;1236;-49
2022/08/28 05:19:51;;;;;;;;;;;;;;;16.58;57.70;100473.75;5078363;28;962;-48
2022/08/28 05:22:16;;;;;;;;;;;;;;;16.50;57.64;100474.31;5078196;28;1036;-52
2022/08/28 05:24:42;;;;;;;;;;;;;;;16.47;57.35;100469.41;5068212;28;1191;-52
2022/08/28 05:27:08;;;;;;;;;;;;;;;16.43;57.20;100475.44;5078232;28;1008;-53
2022/08/28 05:29:33;;;;;;;;;;;;;;;16.41;57.11;100474.91;5078108;28;1152;-54
2022/08/28 05:31:59;;;;;;;;;;;;;;;16.33;57.08;100475.47;5063951;28;1898;-51
2022/08/28 05:34:24;;;;;;;;;;;;;;;16.33;57.09;100475.47;5050452;28;1010;-50
2022/08/28 05:36:50;;;;;;;;;;;;;;;16.28;57.11;100472.72;5074649;28;1198;-47
2022/08/28 05:39:15;;;;;;;;;;;;;;;16.26;57.16;100469.47;5078232;28;1037;-47
2022/08/28 05:41:42;;;;;;;;;;;;;;;16.30;56.70;100473.28;5077943;28;1016;-49
2022/08/28 05:44:08;;;;;;;;;;;;;;;16.57;57.68;100472.91;5067171;28;993;-47
2022/08/28 05:46:34;;;;;;;;;;;;;;;17.15;55.80;100478.97;5078061;28;1000;-48
2022/08/28 05:49:00;;;;;;;;;;;;;;;16.68;54.79;100484.69;5077909;28;1044;-47
2022/08/28 05:51:25;;;;;;;;;;;;;;;16.48;53.25;100482.00;5072957;28;1902;-47
2022/08/28 05:53:51;;;;;;;;;;;;;;;16.38;52.43;100482.84;5060409;28;1374;-53
2022/08/28 05:56:17;;;;;;;;;;;;;;;16.35;51.57;100488.91;5067917;28;1366;-50
2022/08/28 05:58:43;;;;;;;;;;;;;;;16.34;50.97;100487.25;5065376;28;1393;-49
2022/08/28 06:01:10;;;;;;;;;;;;;;;16.33;51.16;100483.69;5072418;28;986;-47
2022/08/28 06:03:36;;;;;;;;;;;;;;;16.88;52.95;100481.03;5069939;28;1128;-54
2022/08/28 06:06:01;;;;;;;;;;;;;;;16.62;52.25;100485.81;5074200;28;1221;-52
2022/08/28 06:08:27;;;;;;;;;;;;;;;16.54;51.21;100489.94;5077671;28;1167;-47
2022/08/28 06:10:53;;;;;;;;;;;;;;;16.52;50.59;100488.56;5077580;28;1898;-48
2022/08/28 06:13:18;;;;;;;;;;;;;;;16.49;50.14;100481.72;5067889;28;1239;-47
2022/08/28 06:15:44;;;;;;;;;;;;;;;16.49;49.87;100481.72;5060464;28;1061;-44
2022/08/28 06:18:11;;;;;;;;;;;;;;;16.49;49.60;100480.91;5070251;28;1001;-46
2022/08/28 06:20:40;;;;;;;;;;;;;;;16.53;49.06;100485.56;5076826;28;977;-47
2022/08/28 06:23:05;;;;;;;;;;;;;;;16.45;49.12;100482.56;5066766;28;1193;-49
2022/08/28 06:25:31;;;;;;;;;;;;;;;16.43;48.85;100475.44;5076761;28;1159;-46
2022/08/28 06:27:56;;;;;;;;;;;;;;;16.42;48.90;100484.78;5059146;28;1280;-51
2022/08/28 06:30:21;;;;;;;;;;;;;;;16.48;48.63;100487.50;5077088;28;1143;-44
2022/08/28 06:32:47;;;;;;;;;;;;;;;16.48;48.45;100491.06;5066208;28;1902;-48
2022/08/28 06:35:12;;;;;;;;;;;;;;;16.48;48.37;100482.00;5072700;28;1036;-47
2022/08/28 06:37:38;;;;;;;;;;;;;;;16.49;48.16;100489.16;5076857;28;1203;-46
2022/08/28 06:40:03;;;;;;;;;;;;;;;16.51;48.06;100493.25;5075651;28;1016;-51
2022/08/28 06:42:30;;;;;;;;;;;;;;;16.50;48.29;100493.53;5059450;28;1268;-47
2022/08/28 06:44:55;;;;;;;;;;;;;;;16.50;48.20;100486.13;5072385;28;1417;-43
2022/08/28 06:47:21;;;;;;;;;;;;;;;16.59;47.90;100500.06;5072247;28;1013;-46
2022/08/28 06:49:47;;;;;;;;;;;;;;;16.58;48.32;100492.97;5067060;28;1166;-49
2022/08/28 06:52:12;;;;;;;;;;;;;;;16.59;48.11;100489.94;5076550;28;1925;-46
2022/08/28 06:54:37;;;;;;;;;;;;;;;16.58;48.11;100485.53;5076835;28;1167;-47
2022/08/28 06:57:03;;;;;;;;;;;;;;;16.58;48.13;100484.72;5073532;28;1075;-46
2022/08/28 06:59:29;;;;;;;;;;;;;;;16.57;48.01;100486.63;5071724;28;1048;-49
2022/08/28 07:01:54;;;;;;;;;;;;;;;16.48;47.82;100471.88;5073100;28;1160;-48
2022/08/28 07:04:20;;;;;;;;;;;;;;;16.53;48.15;100482.00;5070043;28;1088;-45
2022/08/28 07:06:48;;;;;;;;;;;;;;;16.60;47.78;100485.25;5069341;28;1139;-49
2022/08/28 07:09:13;;;;;;;;;;;;;;;16.59;47.96;100478.13;5068562;28;808;-46
2022/08/28 07:11:39;;;;;;;;;;;;;;;16.60;47.71;100485.25;5070742;28;1964;-44
2022/08/28 07:14:04;;;;;;;;;;;;;;;16.63;47.73;100483.88;5076267;28;1013;-46
2022/08/28 07:16:31;;;;;;;;;;;;;;;16.65;47.67;100481.66;5076537;28;1151;-49
2022/08/28 07:18:57;;;;;;;;;;;;;;;16.68;47.76;100476.44;5076384;28;1009;-45
2022/08/28 07:21:22;;;;;;;;;;;;;;;16.61;48.08;100484.16;5075459;28;957;-45
2022/08/28 07:23:48;;;;;;;;;;;;;;;16.68;47.71;100484.69;5071426;28;1200;-46
2022/08/28 07:26:14;;;;;;;;;;;;;;;16.70;48.01;100482.44;5059092;28;1001;-47
2022/08/28 07:28:39;;;;;;;;;;;;;;;16.73;47.87;100483.81;5073248;28;1183;-46
2022/08/28 07:31:13;;;;;;;;;;;;;;;16.75;47.93;100479.69;5075822;28;1926;-46
2022/08/28 07:33:38;;;;;;;;;;;;;;;16.70;48.19;100485.19;5071460;28;1143;-47
2022/08/28 07:36:04;;;;;;;;;;;;;;;16.71;48.08;100477.81;5073925;28;962;-46
2022/08/28 07:38:30;;;;;;;;;;;;;;;16.86;47.70;100487.91;5065093;28;1248;-47
2022/08/28 07:40:55;;;;;;;;;;;;;;;16.79;47.91;100484.63;5056820;28;1139;-47
2022/08/28 07:46:10;;;;;;;;;;;;;;;16.73;47.86;100481.91;5066607;28;1112;-50
2022/08/28 07:48:35;;;;;;;;;;;;;;;16.81;48.01;100479.69;5065629;28;998;-45
2022/08/28 07:51:01;;;;;;;;;;;;;;;16.77;47.83;100473.91;5075458;28;2321;-48
2022/08/28 07:53:27;;;;;;;;;;;;;;;16.91;47.73;100488.72;5069059;28;1207;-51
2022/08/28 07:55:52;;;;;;;;;;;;;;;16.89;47.87;100487.38;5059565;28;1406;-50
2022/08/28 07:58:19;;;;;;;;;;;;;;;16.88;47.96;100485.69;5072833;28;1095;-48
2022/08/28 08:00:44;;;;;;;;;;;;;;;16.89;48.04;100490.09;5069635;28;1009;-48
2022/08/28 08:03:10;;;;;;;;;;;;;;;16.90;47.87;100486.22;5070112;28;1001;-51
2022/08/28 08:05:36;;;;;;;;;;;;;;;16.92;47.98;100484.03;5065423;28;1005;-49
2022/08/28 08:08:02;;;;;;;;;;;;;;;16.98;48.06;100484.84;5075500;28;1130;-48
2022/08/28 08:10:27;;;;;;;;;;;;;;;17.02;47.82;100489.47;5071283;28;998;-49
2022/08/28 08:12:52;;;;;;;;;;;;;;;16.95;48.14;100486.22;5074568;28;1918;-53
2022/08/28 08:15:18;;;;;;;;;;;;;;;16.96;47.97;100482.38;5075454;28;1040;-52
2022/08/28 08:17:44;;;;;;;;;;;;;;;17.01;47.68;100473.28;5075760;28;1140;-54
2022/08/28 08:20:09;;;;;;;;;;;;;;;17.00;47.85;100477.97;5075815;28;1016;-48
2022/08/28 08:22:35;;;;;;;;;;;;;;;17.05;47.82;100479.84;5068667;28;1064;-47
2022/08/28 08:25:03;;;;;;;;;;;;;;;16.97;48.13;100481.28;5079841;28;1009;-48
2022/08/28 08:27:29;;;;;;;;;;;;;;;17.02;47.84;100478.47;5079409;28;1005;-47
2022/08/28 08:29:54;;;;;;;;;;;;;;;17.07;47.80;100480.41;5079679;28;1159;-50
2022/08/28 08:32:19;;;;;;;;;;;;;;;17.02;47.80;100483.16;5079102;28;1976;-47
2022/08/28 08:34:45;;;;;;;;;;;;;;;17.15;47.76;100476.22;5074513;28;1100;-51
2022/08/28 08:37:12;;;;;;;;;;;;;;;17.03;48.16;100474.63;5079306;28;1021;-48
2022/08/28 08:39:37;;;;;;;;;;;;;;;17.07;48.09;100469.41;5067544;28;925;-48
2022/08/28 08:42:04;;;;;;;;;;;;;;;17.13;47.95;100473.75;5078871;28;1037;-50
2022/08/28 08:44:34;;;;;;;;;;;;;;;17.08;47.97;100473.78;5051843;28;1093;-50
2022/08/28 08:47:14;;;;;;;;;;;;;;;17.13;47.86;100465.50;5079129;28;925;-48
2022/08/28 08:49:51;;;;;;;;;;;;;;;17.11;48.02;100473.22;5078871;28;1111;-50
2022/08/28 08:52:24;;;;;;;;;;;;;;;17.13;47.91;100476.50;5061235;28;2000;-50
2022/08/28 08:55:05;;;;;;;;;;;;;;;17.20;47.92;100471.50;5061224;28;1164;-46
2022/08/28 08:57:31;;;;;;;;;;;;;;;17.20;47.90;100470.69;5078471;28;1000;-48
2022/08/28 08:59:57;;;;;;;;;;;;;;;17.19;47.93;100474.53;5069664;28;1017;-52
2022/08/28 09:02:23;;;;;;;;;;;;;;;17.28;47.84;100478.34;5078796;28;993;-51
2022/08/28 09:04:49;;;;;;;;;;;;;;;17.20;47.98;100465.19;5060672;28;1037;-49
2022/08/28 09:07:15;;;;;;;;;;;;;;;17.15;48.41;100462.47;5078334;28;1155;-50
2022/08/28 09:09:51;;;;;;;;;;;;;;;17.14;48.15;100469.06;5060766;28;1139;-48
2022/08/28 09:12:18;;;;;;;;;;;;;;;17.20;48.06;100473.44;5077393;28;1983;-48
2022/08/28 09:14:49;;;;;;;;;;;;;;;17.26;48.14;100461.28;5078864;28;961;-50
2022/08/28 09:17:15;;;;;;;;;;;;;;;17.28;47.98;100472.84;5078556;28;1378;-52
2022/08/28 09:19:41;;;;;;;;;;;;;;;17.33;47.89;100467.28;5060795;28;1072;-46
2022/08/28 09:22:06;;;;;;;;;;;;;;;17.28;48.00;100472.84;5078182;28;1021;-50
2022/08/28 09:24:32;;;;;;;;;;;;;;;17.30;47.70;100465.13;5078759;28;1059;-51
2022/08/28 09:26:59;;;;;;;;;;;;;;;17.30;47.89;100476.09;5078233;28;997;-48
2022/08/28 09:29:27;;;;;;;;;;;;;;;17.19;48.01;100467.09;5078005;28;1203;-49
2022/08/28 09:31:52;;;;;;;;;;;;;;;17.28;47.77;100462.66;5078222;28;1980;-49
2022/08/28 09:34:18;;;;;;;;;;;;;;;17.25;48.29;100473.38;5076965;28;1139;-49
2022/08/28 09:36:44;;;;;;;;;;;;;;;17.28;48.27;100472.84;5078078;28;1013;-46
2022/08/28 09:39:19;;;;;;;;;;;;;;;17.40;48.01;100469.72;5078638;28;981;-48
2022/08/28 09:44:50;;;;;;;;;;;;;;;17.40;48.13;100467.81;5064823;28;928;-48
2022/08/28 09:47:34;;;;;;;;;;;;;;;17.42;47.91;100467.53;5069639;28;1080;-48
2022/08/28 09:50:18;;;;;;;;;;;;;;;17.38;48.27;100467.25;5066273;28;1338;-51
2022/08/28 09:52:43;;;;;;;;;;;;;;;17.37;47.99;100465.59;5072899;28;1992;-49
2022/08/28 09:55:09;;;;;;;;;;;;;;;17.39;48.12;100470.81;5065883;28;1193;-46
2022/08/28 09:57:35;;;;;;;;;;;;;;;17.33;48.40;100461.78;5060018;28;1060;-49
2022/08/28 10:00:00;;;;;;;;;;;;;;;17.41;48.14;100463.94;5047993;28;1172;-46
2022/08/28 10:02:30;;;;;;;;;;;;;;;17.41;48.12;100460.38;5067896;28;1214;-48
2022/08/28 10:05:07;;;;;;;;;;;;;;;17.45;48.08;100454.00;5054294;28;1021;-49
2022/08/28 10:07:36;;;;;;;;;;;;;;;17.38;48.27;100449.97;5049428;28;1358;-48
2022/08/28 10:10:27;;;;;;;;;;;;;;;17.44;48.27;100451.53;5069447;28;1107;-47
2022/08/28 10:13:11;;;;;;;;;;;;;;;17.48;48.05;100455.38;5068714;28;1905;-52
2022/08/28 10:15:48;;;;;;;;;;;;;;;17.47;48.22;100461.16;5073721;28;985;-50
2022/08/28 10:18:52;;;;;;;;;;;;;;;17.50;47.90;100453.16;5077743;28;1040;-48
2022/08/28 10:21:36;;;;;;;;;;;;;;;17.44;48.40;100452.34;4981190;28;1436;-49
2022/08/28 10:24:04;;;;;;;;;;;;;;;17.49;48.12;100457.00;4984234;28;1345;-45
2022/08/28 10:26:35;;;;;;;;;;;;;;;17.45;48.37;100448.50;5038036;28;1354;-45
2022/08/28 10:29:04;;;;;;;;;;;;;;;14.92;54.96;100447.53;5067784;28;1408;-49
2022/08/28 10:31:36;;;;;;;;;;;;;;;16.69;49.77;100445.16;5071184;28;1910;-48
2022/08/28 10:34:04;;;;;;;;;;;;;;;17.10;48.79;100441.38;5077042;28;1103;-47
2022/08/28 10:36:30;;;;;;;;;;;;;;;17.09;48.80;100448.75;5069357;28;1270;-48
2022/08/28 10:38:58;;;;;;;;;;;;;;;17.22;48.61;100451.97;5071089;28;1088;-45
2022/08/28 10:41:24;;;;;;;;;;;;;;;17.26;48.21;100442.91;5076986;28;1076;-46
2022/08/28 10:43:51;;;;;;;;;;;;;;;17.23;48.36;100448.94;5072605;28;1504;-45
2022/08/28 10:46:23;;;;;;;;;;;;;;;17.29;48.17;100436.00;5056696;28;1220;-49
2022/08/28 10:48:58;;;;;;;;;;;;;;;17.34;48.24;100444.19;5068155;28;977;-47
2022/08/28 10:51:31;;;;;;;;;;;;;;;17.36;48.19;100442.00;5059809;28;1906;-44
2022/08/28 10:54:01;;;;;;;;;;;;;;;14.60;55.54;100440.28;5046236;28;1512;-49
2022/08/28 10:56:29;;;;;;;;;;;;;;;16.30;50.61;100437.63;5053326;28;1334;-43
2022/08/28 10:58:57;;;;;;;;;;;;;;;16.83;48.90;100439.84;5049498;28;1223;-43
2022/08/28 11:01:33;;;;;;;;;;;;;;;17.03;48.32;100438.94;5047821;28;1251;-42
2022/08/28 11:03:59;;;;;;;;;;;;;;;17.00;48.76;100434.00;5049663;28;1053;-48
2022/08/28 11:06:39;;;;;;;;;;;;;;;17.12;48.30;100432.84;5057822;28;981;-46
2022/08/28 11:09:23;;;;;;;;;;;;;;;17.21;48.05;100433.88;5076723;28;1009;-48
2022/08/28 11:11:49;;;;;;;;;;;;;;;17.26;48.29;100442.91;5058477;28;1902;-44
2022/08/28 11:14:29;;;;;;;;;;;;;;;17.26;47.86;100434.66;5076290;28;981;-47
2022/08/28 11:16:56;;;;;;;;;;;;;;;17.22;48.27;100441.00;5066208;28;1218;-46
2022/08/28 11:19:28;;;;;;;;;;;;;;;17.30;48.37;100432.13;5076776;28;1025;-46
2022/08/28 11:21:54;;;;;;;;;;;;;;;17.31;48.34;100443.97;5058610;28;1092;-47
2022/08/28 11:24:38;;;;;;;;;;;;;;;17.32;48.29;100438.19;5076173;28;890;-47
2022/08/28 11:27:04;;;;;;;;;;;;;;;17.33;48.18;100436.25;5076718;28;1127;-45
2022/08/28 11:30:02;;;;;;;;;;;;;;;17.28;48.19;100437.13;5076479;28;1421;-49
2022/08/28 11:32:30;;;;;;;;;;;;;;;17.36;47.93;100431.00;5018875;28;1906;-47
2022/08/28 11:34:56;;;;;;;;;;;;;;;17.38;47.72;100434.28;5074622;28;1000;-49
2022/08/28 11:37:41;;;;;;;;;;;;;;;17.40;47.87;100431.25;5074974;28;1191;-47
2022/08/28 11:40:12;;;;;;;;;;;;;;;17.46;47.85;100435.59;5058536;28;977;-46
2022/08/28 11:42:38;;;;;;;;;;;;;;;15.08;54.01;100431.13;5062676;28;1035;-45
2022/08/28 11:45:03;;;;;;;;;;;;;;;16.08;51.28;100430.53;5067782;28;1017;-48
2022/08/28 11:47:37;;;;;;;;;;;;;;;16.87;48.98;100423.63;5073076;28;1065;-46
2022/08/28 11:50:03;;;;;;;;;;;;;;;17.08;48.62;100427.91;5046405;28;1081;-47
2022/08/28 11:52:39;;;;;;;;;;;;;;;17.09;48.51;100432.28;5065769;28;1898;-49
2022/08/28 11:55:18;;;;;;;;;;;;;;;17.13;48.42;100434.47;5062897;28;1133;-43
2022/08/28 11:57:44;;;;;;;;;;;;;;;17.23;48.17;100428.91;5075123;28;1016;-45
2022/08/28 12:00:19;;;;;;;;;;;;;;;17.25;48.31;100429.41;5075553;28;847;-46
2022/08/28 12:02:48;;;;;;;;;;;;;;;17.28;48.43;100424.19;5058530;28;1174;-46
2022/08/28 12:05:14;;;;;;;;;;;;;;;17.29;48.33;100430.50;5062818;28;933;-47
2022/08/28 12:07:43;;;;;;;;;;;;;;;17.34;48.14;100427.72;5075866;28;1072;-45
2022/08/28 12:10:21;;;;;;;;;;;;;;;17.23;48.36;100420.66;5058346;28;1246;-45
2022/08/28 12:12:46;;;;;;;;;;;;;;;17.30;48.37;100421.16;5070940;28;1906;-45
2022/08/28 12:15:27;;;;;;;;;;;;;;;17.32;48.39;100416.19;5065327;28;1202;-46
2022/08/28 12:17:53;;;;;;;;;;;;;;;17.40;48.00;100421.09;5069516;28;1069;-48
2022/08/28 12:20:22;;;;;;;;;;;;;;;17.40;48.19;100415.59;5074546;28;1144;-44
2022/08/28 12:22:49;;;;;;;;;;;;;;;17.41;48.28;100414.44;5075941;28;1119;-49
2022/08/28 12:25:29;;;;;;;;;;;;;;;17.50;48.05;100417.44;5074883;28;1028;-45
2022/08/28 12:27:55;;;;;;;;;;;;;;;17.41;48.17;100411.72;5057599;28;1049;-43
2022/08/28 12:30:27;;;;;;;;;;;;;;;16.99;49.09;100412.31;5057524;28;1037;-45
2022/08/28 12:32:54;;;;;;;;;;;;;;;15.42;53.36;100419.66;5070095;28;1910;-45
2022/08/28 12:35:24;;;;;;;;;;;;;;;16.74;49.52;100406.66;5075550;28;1071;-48
2022/08/28 12:37:53;;;;;;;;;;;;;;;16.92;48.95;100409.88;5069995;28;1413;-48
2022/08/28 12:40:18;;;;;;;;;;;;;;;17.07;48.49;100412.53;5075530;28;997;-44
2022/08/28 12:42:45;;;;;;;;;;;;;;;17.07;48.55;100412.53;5069425;28;1002;-46
2022/08/28 12:45:10;;;;;;;;;;;;;;;17.27;48.27;100419.78;5049167;28;1430;-49
2022/08/28 12:47:36;;;;;;;;;;;;;;;17.25;48.20;100407.44;5056847;28;1242;-44
2022/08/28 12:50:20;;;;;;;;;;;;;;;17.33;48.11;100414.25;5057876;28;993;-46
2022/08/28 12:52:47;;;;;;;;;;;;;;;17.22;48.45;100408.03;5065285;28;1910;-46
2022/08/28 12:55:12;;;;;;;;;;;;;;;17.31;48.26;100405.50;5075051;28;1041;-47
2022/08/28 12:57:38;;;;;;;;;;;;;;;17.39;47.65;100413.94;5075319;28;1068;-46
2022/08/28 13:00:07;;;;;;;;;;;;;;;17.32;48.09;100412.63;5043544;28;1284;-50
2022/08/28 13:02:32;;;;;;;;;;;;;;;17.32;48.34;100409.88;5075099;28;1112;-47
2022/08/28 13:04:58;;;;;;;;;;;;;;;17.40;47.86;100404.59;5075175;28;1237;-45